Time;durP1;ratioP1;P1;durP2;ratioP2;P2;SDS_P1;SDS_P2;PMS_P1;PMS_P2;Temp;Humidity;BMP_temperature;BMP_pressure;BME280_temperature;BME280_humidity;BME280_pressure;Samples;Min_cycle;Max_cycle;Signal;HPM_P1;HPM_P2
2023/09/05 00:02:13;;;;;;;;;5.00;5.00;;;;;24.37;50.26;102012.23;110175;1250;19881;-37
2023/09/05 00:04:42;;;;;;;;;5.00;5.00;;;;;24.37;50.23;102009.54;110156;1259;19904;-37
2023/09/05 00:07:10;;;;;;;;;7.00;6.00;;;;;24.36;50.44;102010.08;110186;1251;20580;-37
2023/09/05 00:09:37;;;;;;;;;5.00;5.00;;;;;24.38;50.32;102008.77;110170;1259;19593;-37
2023/09/05 00:12:04;;;;;;;;;6.00;5.00;;;;;24.39;50.45;102005.72;110181;1265;18629;-37
2023/09/05 00:14:31;;;;;;;;;5.50;5.50;;;;;24.37;50.49;102006.09;110154;1250;20965;-37
2023/09/05 00:16:59;;;;;;;;;6.00;6.00;;;;;24.36;50.52;102004.98;110155;1259;19918;-37
2023/09/05 00:19:26;;;;;;;;;5.67;5.67;;;;;24.37;50.53;102006.14;110163;1251;20018;-37
2023/09/05 00:21:53;;;;;;;;;5.00;5.00;;;;;24.36;50.35;101998.30;110174;1265;21607;-37
2023/09/05 00:24:21;;;;;;;;;6.00;6.00;;;;;24.36;50.41;102003.17;110139;1265;22232;-37
2023/09/05 00:26:48;;;;;;;;;5.00;5.00;;;;;24.37;50.26;102002.69;110190;1250;20026;-36
2023/09/05 00:29:15;;;;;;;;;4.50;4.00;;;;;24.39;50.48;102002.04;110047;1250;168521;-37
2023/09/05 00:31:42;;;;;;;;;8.00;5.00;;;;;24.39;50.45;102005.55;110166;1251;19690;-38
2023/09/05 00:34:10;;;;;;;;;5.00;5.00;;;;;24.39;50.49;102007.25;110184;1251;19980;-38
2023/09/05 00:36:39;;;;;;;;;4.00;4.00;;;;;24.38;50.30;102005.32;110163;1257;24114;-36
2023/09/05 00:39:07;;;;;;;;;6.00;6.00;;;;;24.39;50.55;102004.61;110162;1251;19723;-37
2023/09/05 00:41:34;;;;;;;;;6.00;5.50;;;;;24.37;50.34;102002.52;110164;1265;19866;-37
2023/09/05 00:44:02;;;;;;;;;5.00;5.00;;;;;24.35;50.36;102001.58;110174;1251;20781;-37
2023/09/05 00:46:30;;;;;;;;;5.00;5.00;;;;;24.37;50.50;102001.10;110167;1251;20917;-37
2023/09/05 00:49:02;;;;;;;;;6.00;6.00;;;;;24.35;50.55;102004.81;110205;1249;20132;-37
2023/09/05 00:51:29;;;;;;;;;6.00;6.00;;;;;24.35;50.42;102000.92;110178;1265;20747;-37
2023/09/05 00:53:57;;;;;;;;;6.00;6.00;;;;;24.34;50.38;101997.14;110162;1265;18409;-36
2023/09/05 00:56:24;;;;;;;;;6.00;6.00;;;;;24.34;50.37;101991.11;110201;1251;20110;-36
2023/09/05 00:58:51;;;;;;;;;9.00;8.00;;;;;24.34;50.52;101997.52;110170;1251;20785;-36
2023/09/05 01:01:19;;;;;;;;;8.00;6.00;;;;;24.35;50.48;101994.73;110152;1265;22067;-36
2023/09/05 01:03:46;;;;;;;;;8.00;8.00;;;;;24.33;50.59;101992.42;110049;1251;20432;-36
2023/09/05 01:06:13;;;;;;;;;8.00;8.00;;;;;24.32;50.36;101987.98;110168;1265;19665;-36
2023/09/05 01:08:40;;;;;;;;;7.50;7.50;;;;;24.34;50.36;101982.79;110184;1252;19632;-36
2023/09/05 01:11:09;;;;;;;;;8.33;7.33;;;;;24.32;50.43;101983.23;110166;1265;18639;-37
2023/09/05 01:13:36;;;;;;;;;8.00;8.00;;;;;24.33;50.49;101984.70;110193;1251;22007;-37
2023/09/05 01:16:03;;;;;;;;;10.00;9.00;;;;;24.35;50.37;101985.20;110183;1250;18388;-37
2023/09/05 01:18:33;;;;;;;;;5.00;5.00;;;;;24.35;50.32;101983.40;110132;1251;20082;-37
2023/09/05 01:21:00;;;;;;;;;7.00;5.50;;;;;24.37;50.53;101981.22;110173;1251;20715;-37
2023/09/05 01:23:28;;;;;;;;;7.00;7.00;;;;;24.37;50.31;101975.24;110150;1258;22048;-35
2023/09/05 01:25:55;;;;;;;;;6.00;5.50;;;;;24.36;50.26;101978.80;110127;1250;20036;-37
2023/09/05 01:28:23;;;;;;;;;6.00;6.00;;;;;24.37;50.32;101983.58;110163;1253;19502;-37
2023/09/05 01:30:50;;;;;;;;;8.00;7.00;;;;;24.36;50.34;101980.02;110183;1257;18386;-36
2023/09/05 01:33:17;;;;;;;;;6.00;6.00;;;;;24.36;50.29;101979.19;110169;1250;23932;-37
2023/09/05 01:35:44;;;;;;;;;5.00;5.00;;;;;24.36;50.45;101978.09;110198;1251;20962;-37
2023/09/05 01:38:12;;;;;;;;;8.00;6.00;;;;;24.35;50.20;101980.33;110186;1259;19682;-37
2023/09/05 01:40:39;;;;;;;;;9.00;9.00;;;;;24.35;50.48;101981.16;110185;1250;22651;-37
2023/09/05 01:43:06;;;;;;;;;6.00;6.00;;;;;24.36;50.49;101977.77;110172;1260;20677;-36
2023/09/05 01:45:34;;;;;;;;;7.00;6.00;;;;;24.36;50.53;101980.50;110151;1250;20140;-38
2023/09/05 01:48:01;;;;;;;;;5.00;5.00;;;;;24.37;50.24;101978.98;110157;1265;18545;-36
2023/09/05 01:50:28;;;;;;;;;6.00;5.00;;;;;24.37;50.39;101983.19;110164;1251;20819;-36
2023/09/05 01:52:56;;;;;;;;;7.00;7.00;;;;;24.37;50.46;101982.98;110021;1253;19713;-35
2023/09/05 01:55:23;;;;;;;;;7.33;7.33;;;;;24.35;50.35;101980.33;110182;1266;19841;-35
2023/09/05 01:57:50;;;;;;;;;6.00;6.00;;;;;24.35;50.21;101980.17;110173;1265;19345;-36
2023/09/05 02:00:19;;;;;;;;;6.00;6.00;;;;;24.34;50.24;101980.55;110173;1250;19692;-36
2023/09/05 02:02:46;;;;;;;;;6.00;6.00;;;;;24.34;50.28;101980.76;110164;1265;19969;-36
2023/09/05 02:05:14;;;;;;;;;9.00;8.00;;;;;24.35;50.38;101976.55;110147;1251;21225;-35
2023/09/05 02:07:41;;;;;;;;;8.00;8.00;;;;;24.37;50.29;101973.49;110163;1257;18235;-36
2023/09/05 02:10:08;;;;;;;;;8.00;6.00;;;;;24.37;50.32;101977.11;110149;1259;21373;-36
2023/09/05 02:12:36;;;;;;;;;7.67;7.67;;;;;24.36;50.39;101978.25;110200;1251;20718;-36
2023/09/05 02:15:04;;;;;;;;;6.00;6.00;;;;;24.32;50.36;101975.60;110210;1251;20704;-36
2023/09/05 02:17:31;;;;;;;;;8.00;8.00;;;;;24.33;50.27;101974.90;110133;1250;21528;-37
2023/09/05 02:19:59;;;;;;;;;7.00;7.00;;;;;24.34;50.39;101971.50;110187;1257;20702;-36
2023/09/05 02:22:26;;;;;;;;;7.50;7.00;;;;;24.31;50.18;101973.41;110194;1251;22261;-36
2023/09/05 02:24:53;;;;;;;;;5.50;5.50;;;;;24.32;50.30;101973.08;110181;1251;20079;-38
2023/09/05 02:27:21;;;;;;;;;5.00;5.00;;;;;24.35;50.18;101974.85;110195;1265;21925;-37
2023/09/05 02:29:49;;;;;;;;;8.50;8.00;;;;;24.32;50.38;101975.88;110194;1265;18306;-36
2023/09/05 02:32:17;;;;;;;;;8.50;8.50;;;;;24.32;50.21;101975.11;110181;1259;19932;-37
2023/09/05 02:34:44;;;;;;;;;8.00;7.50;;;;;24.31;50.27;101976.86;110167;1265;19238;-37
2023/09/05 02:37:13;;;;;;;;;6.00;6.00;;;;;24.31;50.19;101979.38;110196;1265;18596;-37
2023/09/05 02:39:40;;;;;;;;;9.67;8.00;;;;;24.31;50.10;101980.85;110172;1251;20111;-37
2023/09/05 02:42:07;;;;;;;;;8.33;8.33;;;;;24.31;50.18;101982.49;110177;1265;19496;-37
2023/09/05 02:44:34;;;;;;;;;6.00;6.00;;;;;24.29;50.20;101984.23;110177;1250;20272;-37
2023/09/05 02:47:02;;;;;;;;;8.00;8.00;;;;;24.30;50.19;101984.79;110172;1265;18650;-37
2023/09/05 02:49:29;;;;;;;;;12.50;8.00;;;;;24.32;50.16;101984.91;110190;1251;20858;-37
2023/09/05 02:51:56;;;;;;;;;8.00;8.00;;;;;24.32;50.06;101978.61;110145;1265;18328;-37
2023/09/05 02:54:24;;;;;;;;;9.00;8.00;;;;;24.31;50.18;101974.44;110075;1265;18635;-37
2023/09/05 02:56:51;;;;;;;;;6.00;6.00;;;;;24.31;50.02;101977.02;110180;1252;21969;-37
2023/09/05 02:59:18;;;;;;;;;7.00;7.00;;;;;24.30;49.86;101970.77;110201;1258;19729;-37
2023/09/05 03:01:46;;;;;;;;;8.33;8.33;;;;;24.30;49.92;101972.96;110155;1250;21075;-37
2023/09/05 03:04:13;;;;;;;;;10.00;9.00;;;;;24.31;50.03;101966.94;110156;1249;20756;-37
2023/09/05 03:06:40;;;;;;;;;8.00;8.00;;;;;24.30;49.77;101969.35;110133;1259;23139;-37
2023/09/05 03:09:08;;;;;;;;;7.00;7.00;;;;;24.28;50.12;101971.08;110164;1253;20186;-36
2023/09/05 03:11:36;;;;;;;;;10.00;10.00;;;;;24.27;50.13;101969.87;110164;1251;20818;-37
2023/09/05 03:14:03;;;;;;;;;11.00;9.00;;;;;24.30;49.88;101967.98;110156;1265;18521;-37
2023/09/05 03:16:30;;;;;;;;;8.00;8.00;;;;;24.31;49.95;101967.77;110189;1249;21345;-37
2023/09/05 03:18:59;;;;;;;;;8.00;8.00;;;;;24.31;49.72;101968.15;110159;1252;20754;-37
2023/09/05 03:21:26;;;;;;;;;9.00;8.00;;;;;24.31;49.80;101969.13;110169;1265;18617;-37
2023/09/05 03:23:54;;;;;;;;;8.00;6.00;;;;;24.31;49.93;101962.45;110187;1251;21212;-37
2023/09/05 03:26:21;;;;;;;;;6.00;6.00;;;;;24.32;49.61;101964.76;110196;1251;20772;-37
2023/09/05 03:28:48;;;;;;;;;6.00;6.00;;;;;24.32;49.83;101966.89;110162;1250;20249;-37
2023/09/05 03:31:16;;;;;;;;;10.00;8.00;;;;;24.30;49.81;101965.90;110177;1265;18682;-37
2023/09/05 03:33:43;;;;;;;;;9.50;8.00;;;;;24.31;49.60;101964.96;110159;1258;22262;-37
2023/09/05 03:36:11;;;;;;;;;8.00;8.00;;;;;24.30;49.48;101969.73;110161;1259;20000;-37
2023/09/05 03:38:38;;;;;;;;;8.00;8.00;;;;;24.31;49.78;101966.07;110215;1250;20011;-37
2023/09/05 03:41:05;;;;;;;;;13.00;12.00;;;;;24.31;49.74;101964.31;110172;1265;19576;-36
2023/09/05 03:43:32;;;;;;;;;12.00;9.00;;;;;24.31;49.64;101964.05;110159;1251;20996;-36
2023/09/05 03:46:00;;;;;;;;;6.00;6.00;;;;;24.32;49.56;101967.39;110178;1265;18887;-37
2023/09/05 03:48:27;;;;;;;;;8.33;7.33;;;;;24.32;49.44;101965.96;110184;1259;20615;-36
2023/09/05 03:50:54;;;;;;;;;8.50;8.00;;;;;24.28;49.63;101964.50;110197;1265;18331;-37
2023/09/05 03:53:22;;;;;;;;;11.00;11.00;;;;;24.30;49.39;101964.02;110167;1265;18620;-36
2023/09/05 03:55:49;;;;;;;;;10.00;9.00;;;;;24.29;49.44;101963.31;110157;1265;19694;-37
2023/09/05 03:58:16;;;;;;;;;8.00;8.00;;;;;24.28;49.48;101964.19;110178;1250;21435;-36
2023/09/05 04:00:44;;;;;;;;;8.50;8.50;;;;;24.28;49.51;101967.47;110170;1252;20057;-37
2023/09/05 04:03:13;;;;;;;;;8.00;8.00;;;;;24.28;49.55;101968.08;110172;1265;19353;-37
2023/09/05 04:05:40;;;;;;;;;8.00;8.00;;;;;24.27;49.57;101967.94;110198;1251;19673;-37
2023/09/05 04:08:07;;;;;;;;;6.00;6.00;;;;;24.25;49.66;101972.46;110168;1266;22356;-37
2023/09/05 04:10:35;;;;;;;;;10.00;10.00;;;;;24.27;49.56;101967.79;110183;1253;20793;-37
2023/09/05 04:13:02;;;;;;;;;6.00;6.00;;;;;24.29;49.54;101968.19;110190;1250;19718;-37
2023/09/05 04:15:30;;;;;;;;;10.00;9.00;;;;;24.27;49.52;101972.45;110184;1265;18569;-37
2023/09/05 04:17:57;;;;;;;;;12.50;9.00;;;;;24.24;49.44;101968.08;110198;1265;19366;-36
2023/09/05 04:20:24;;;;;;;;;9.00;9.00;;;;;24.27;49.38;101963.02;110168;1265;22971;-36
2023/09/05 04:22:52;;;;;;;;;9.00;9.00;;;;;24.25;49.45;101965.47;110163;1265;20107;-37
2023/09/05 04:25:19;;;;;;;;;9.00;9.00;;;;;24.25;49.48;101966.02;110203;1253;20992;-36
2023/09/05 04:27:48;;;;;;;;;10.00;9.00;;;;;24.27;49.26;101964.23;110217;1265;18310;-37
2023/09/05 04:30:16;;;;;;;;;8.00;8.00;;;;;24.25;49.41;101959.50;110189;1253;20183;-37
2023/09/05 04:32:43;;;;;;;;;9.50;9.00;;;;;24.25;49.32;101959.94;110221;1265;19338;-37
2023/09/05 04:35:10;;;;;;;;;15.00;12.50;;;;;24.31;49.07;101959.94;110191;1259;22152;-38
2023/09/05 04:37:38;;;;;;;;;8.00;8.00;;;;;24.32;49.15;101962.84;110217;1265;18804;-37
2023/09/05 04:40:05;;;;;;;;;10.00;9.00;;;;;24.29;49.20;101963.32;110199;1250;21673;-37
2023/09/05 04:42:33;;;;;;;;;8.00;6.00;;;;;24.27;49.06;101968.27;110158;1250;19661;-37
2023/09/05 04:45:00;;;;;;;;;10.00;10.00;;;;;24.32;48.68;101968.98;110140;1265;18876;-37
2023/09/05 04:47:27;;;;;;;;;12.33;11.33;;;;;24.31;48.76;101963.00;110185;1258;22391;-37
2023/09/05 04:49:55;;;;;;;;;10.00;10.00;;;;;24.31;48.66;101965.86;110057;1251;20091;-37
2023/09/05 04:52:22;;;;;;;;;10.00;10.00;;;;;24.35;48.88;101963.84;110169;1265;18990;-37
2023/09/05 04:54:49;;;;;;;;;9.33;9.33;;;;;24.39;49.51;101965.89;110178;1251;20854;-38
2023/09/05 04:57:17;;;;;;;;;12.00;12.00;;;;;24.37;50.11;101964.35;110198;1265;18642;-38
2023/09/05 04:59:44;;;;;;;;;10.00;9.33;;;;;24.41;50.88;101963.94;110183;1250;23926;-38
2023/09/05 05:02:12;;;;;;;;;193.00;178.00;;;;;24.44;50.53;101969.10;110127;1253;20661;-36
2023/09/05 05:04:40;;;;;;;;;94.50;76.00;;;;;24.46;51.28;101968.45;110142;1251;21333;-36
2023/09/05 05:07:08;;;;;;;;;111.67;104.00;;;;;24.52;52.15;101969.64;110161;1265;20808;-36
2023/09/05 05:09:35;;;;;;;;;87.00;71.00;;;;;24.54;52.13;101969.43;110160;1265;19565;-36
2023/09/05 05:12:02;;;;;;;;;67.00;54.00;;;;;24.58;51.18;101968.52;110186;1259;20368;-37
2023/09/05 05:14:30;;;;;;;;;61.00;50.00;;;;;24.58;50.83;101970.92;110137;1251;20149;-37
2023/09/05 05:16:57;;;;;;;;;44.50;42.00;;;;;24.56;50.58;101968.11;110163;1259;21105;-38
2023/09/05 05:19:25;;;;;;;;;39.00;34.50;;;;;24.54;50.07;101970.52;110142;1265;18647;-37
2023/09/05 05:21:52;;;;;;;;;32.00;32.00;;;;;24.59;49.91;101971.43;110170;1259;18797;-38
2023/09/05 05:24:19;;;;;;;;;81.33;60.00;;;;;24.58;49.85;101975.91;110162;1259;20649;-38
2023/09/05 05:26:46;;;;;;;;;217.00;158.00;;;;;24.58;49.80;101976.67;110160;1265;19967;-38
2023/09/05 05:29:14;;;;;;;;;715.33;596.00;;;;;24.59;49.29;101973.23;110150;1265;18744;-38
2023/09/05 05:31:41;;;;;;;;;426.00;302.00;;;;;24.61;49.46;101971.71;110185;1253;20824;-37
2023/09/05 05:34:09;;;;;;;;;377.67;273.67;;;;;24.65;49.11;101969.92;110141;1265;20291;-38
2023/09/05 05:36:36;;;;;;;;;229.00;167.00;;;;;24.64;49.34;101970.02;110080;1251;22436;-35
2023/09/05 05:39:03;;;;;;;;;109.00;81.00;;;;;24.60;49.04;101970.72;110097;1265;19399;-37
2023/09/05 05:41:30;;;;;;;;;99.00;70.00;;;;;24.44;48.54;101965.60;110187;1251;20409;-36
2023/09/05 05:43:58;;;;;;;;;64.00;48.50;;;;;24.34;48.40;101966.52;110170;1265;19407;-35
2023/09/05 05:46:25;;;;;;;;;56.00;41.00;;;;;24.21;48.46;101967.23;110119;1259;20760;-37
2023/09/05 05:48:52;;;;;;;;;44.50;39.50;;;;;24.13;48.33;101967.95;110167;1251;20056;-36
2023/09/05 05:51:20;;;;;;;;;39.00;31.00;;;;;24.14;48.31;101970.85;110151;1253;22573;-34
2023/09/05 05:53:49;;;;;;;;;28.00;24.50;;;;;24.09;48.46;101970.17;110168;1265;19558;-37
2023/09/05 05:56:17;;;;;;;;;27.00;24.00;;;;;24.04;48.48;101971.16;110189;1250;20091;-36
2023/09/05 05:58:45;;;;;;;;;26.00;23.00;;;;;23.69;49.24;101973.84;110260;1250;20182;-35
2023/09/05 06:01:13;;;;;;;;;27.00;22.33;;;;;23.55;49.86;101979.29;110166;1259;22057;-35
2023/09/05 06:03:41;;;;;;;;;22.00;22.00;;;;;23.23;50.82;101982.77;110207;1251;20040;-35
2023/09/05 06:06:08;;;;;;;;;22.00;19.00;;;;;23.30;50.60;101983.23;110203;1250;20148;-34
2023/09/05 06:08:35;;;;;;;;;30.50;28.50;;;;;23.17;51.24;101983.85;110181;1265;19316;-34
2023/09/05 06:11:03;;;;;;;;;22.00;21.00;;;;;23.16;51.42;101981.27;110180;1265;18590;-34
2023/09/05 06:13:30;;;;;;;;;32.00;28.00;;;;;23.24;51.37;101979.55;110212;1251;21293;-36
2023/09/05 06:15:57;;;;;;;;;28.00;25.00;;;;;23.39;51.09;101983.98;110212;1265;20567;-36
2023/09/05 06:18:25;;;;;;;;;25.00;22.00;;;;;23.40;51.46;101981.52;110184;1251;20135;-36
2023/09/05 06:20:53;;;;;;;;;22.00;19.00;;;;;23.39;51.42;101976.54;110197;1259;22198;-36
2023/09/05 06:23:20;;;;;;;;;23.00;22.00;;;;;23.47;51.43;101977.55;110227;1251;20876;-36
2023/09/05 06:25:47;;;;;;;;;22.00;21.00;;;;;23.51;51.49;101978.40;110170;1251;21570;-36
2023/09/05 06:28:15;;;;;;;;;22.00;19.00;;;;;23.51;51.50;101974.69;110201;1251;20210;-36
2023/09/05 06:30:43;;;;;;;;;18.00;16.00;;;;;23.61;51.28;101977.43;110184;1265;19396;-36
2023/09/05 06:33:10;;;;;;;;;19.00;19.00;;;;;23.64;51.61;101977.08;110180;1260;20082;-35
2023/09/05 06:35:37;;;;;;;;;18.50;17.50;;;;;23.57;51.78;101976.46;110193;1266;22039;-36
2023/09/05 06:38:05;;;;;;;;;24.00;20.00;;;;;23.47;52.26;101971.96;110074;1251;20798;-36
2023/09/05 06:40:33;;;;;;;;;21.67;20.33;;;;;23.57;52.05;101973.08;110117;1265;18619;-36
2023/09/05 06:43:00;;;;;;;;;18.50;18.50;;;;;23.71;51.92;101977.80;110180;1251;22330;-36
2023/09/05 06:45:27;;;;;;;;;20.50;18.50;;;;;23.68;52.08;101976.35;110161;1257;20662;-36
2023/09/05 06:47:55;;;;;;;;;18.00;17.00;;;;;23.66;52.33;101978.69;110173;1265;18588;-36
2023/09/05 06:50:24;;;;;;;;;18.00;18.00;;;;;23.83;51.88;101979.16;110189;1250;20301;-36
2023/09/05 06:52:51;;;;;;;;;19.00;18.00;;;;;23.86;51.81;101974.64;110204;1265;19411;-36
2023/09/05 06:55:18;;;;;;;;;19.67;16.00;;;;;23.84;51.95;101978.40;110150;1265;21740;-36
2023/09/05 06:57:47;;;;;;;;;19.00;19.00;;;;;23.83;52.02;101980.36;110163;1251;20385;-36
2023/09/05 07:00:14;;;;;;;;;18.00;18.00;;;;;23.90;51.69;101982.55;110152;1251;20805;-37
2023/09/05 07:02:41;;;;;;;;;19.50;18.50;;;;;23.89;51.61;101987.96;110178;1265;18540;-36
2023/09/05 07:05:09;;;;;;;;;17.50;17.50;;;;;23.97;51.75;101994.43;110158;1251;20136;-37
2023/09/05 07:07:37;;;;;;;;;20.50;19.00;;;;;24.10;51.73;101996.18;110146;1251;19620;-37
2023/09/05 07:10:05;;;;;;;;;18.00;16.00;;;;;24.12;52.14;101999.04;110167;1250;20017;-37
2023/09/05 07:12:32;;;;;;;;;19.00;17.00;;;;;24.16;51.81;101996.44;110179;1265;18732;-36
2023/09/05 07:15:01;;;;;;;;;16.33;16.00;;;;;24.22;51.86;101994.63;110166;1251;22368;-36
2023/09/05 07:17:28;;;;;;;;;17.50;17.00;;;;;24.29;51.74;101994.85;110198;1250;22172;-36
2023/09/05 07:19:56;;;;;;;;;17.00;16.50;;;;;24.42;51.35;101992.25;110185;1265;18661;-37
2023/09/05 07:22:23;;;;;;;;;16.00;16.00;;;;;24.38;51.29;101989.39;110180;1265;19391;-37
2023/09/05 07:24:50;;;;;;;;;13.00;13.00;;;;;24.43;51.09;101987.77;110187;1250;19942;-37
2023/09/05 07:27:20;;;;;;;;;15.50;15.50;;;;;24.61;50.62;101991.77;110161;1251;20145;-37
2023/09/05 07:29:47;;;;;;;;;16.50;16.00;;;;;24.66;50.55;101990.52;110167;1250;20746;-36
2023/09/05 07:32:14;;;;;;;;;17.00;16.00;;;;;24.74;50.37;101992.98;110162;1251;20028;-36
2023/09/05 07:34:42;;;;;;;;;14.50;14.50;;;;;24.83;50.39;101994.49;110078;1251;20004;-36
2023/09/05 07:37:09;;;;;;;;;14.00;13.00;;;;;24.87;50.49;102002.46;110165;1251;22130;-36
2023/09/05 07:39:37;;;;;;;;;13.00;13.00;;;;;24.93;50.40;102007.09;110185;1251;20092;-37
2023/09/05 07:42:05;;;;;;;;;14.00;14.00;;;;;24.93;50.51;102007.54;110174;1250;20160;-37
2023/09/05 07:44:32;;;;;;;;;15.00;15.00;;;;;25.06;50.07;102006.61;110173;1265;19340;-37
2023/09/05 07:46:59;;;;;;;;;16.00;14.00;;;;;25.05;50.06;102010.30;110176;1251;20143;-37
2023/09/05 07:49:27;;;;;;;;;16.00;14.00;;;;;24.84;50.30;102006.89;110166;1251;20170;-35
2023/09/05 07:51:57;;;;;;;;;31.00;30.00;;;;;24.91;50.29;102005.23;110164;1251;20828;-36
2023/09/05 07:54:25;;;;;;;;;17.00;17.00;;;;;24.90;49.98;102003.13;110170;1252;20018;-36
2023/09/05 07:56:53;;;;;;;;;12.50;12.50;;;;;24.82;49.84;102006.11;110158;1265;21942;-35
2023/09/05 07:59:20;;;;;;;;;13.00;13.00;;;;;24.89;49.88;102007.45;110087;1250;20793;-37
2023/09/05 08:01:47;;;;;;;;;13.00;12.00;;;;;24.86;50.01;102009.74;110078;1252;20036;-37
2023/09/05 08:04:15;;;;;;;;;12.50;12.50;;;;;24.85;50.18;102013.69;110121;1258;20096;-37
2023/09/05 08:06:42;;;;;;;;;15.33;13.67;;;;;24.79;50.38;102014.92;110077;1251;20792;-36
2023/09/05 08:09:09;;;;;;;;;14.50;14.00;;;;;24.67;50.66;102016.77;110053;1265;18632;-35
2023/09/05 08:11:37;;;;;;;;;16.00;13.00;;;;;24.62;50.68;102018.08;110176;1265;18711;-37
2023/09/05 08:14:04;;;;;;;;;23.00;23.00;;;;;24.64;50.63;102017.97;110181;1251;21013;-37
2023/09/05 08:16:31;;;;;;;;;37.50;35.50;;;;;24.62;50.92;102019.98;110169;1259;20273;-37
2023/09/05 08:18:59;;;;;;;;;28.50;27.00;;;;;24.60;51.08;102014.60;110153;1265;22907;-37
2023/09/05 08:21:26;;;;;;;;;25.50;25.00;;;;;24.59;51.42;102013.12;110144;1251;20779;-37
2023/09/05 08:23:54;;;;;;;;;43.50;43.50;;;;;24.52;51.80;102014.63;110169;1251;20076;-37
2023/09/05 08:26:21;;;;;;;;;15.00;14.00;;;;;24.49;51.75;102013.94;110130;1261;20127;-36
2023/09/05 08:28:49;;;;;;;;;16.00;16.00;;;;;24.44;51.58;102012.81;110123;1265;19371;-36
2023/09/05 08:31:16;;;;;;;;;47.33;46.00;;;;;24.47;51.37;102018.64;110209;1250;20010;-37
2023/09/05 08:33:43;;;;;;;;;48.00;46.50;;;;;24.48;51.50;102020.40;110166;1251;24001;-36
2023/09/05 08:36:10;;;;;;;;;16.00;15.00;;;;;24.46;51.68;102016.39;110236;1251;20764;-36
2023/09/05 08:38:38;;;;;;;;;15.50;15.00;;;;;24.45;51.82;102018.24;110201;1250;19994;-36
2023/09/05 08:41:06;;;;;;;;;36.33;36.33;;;;;24.39;51.67;102020.77;110152;1249;18727;-36
2023/09/05 08:43:34;;;;;;;;;38.50;38.00;;;;;24.38;51.86;102019.84;110204;1250;20636;-36
2023/09/05 08:46:02;;;;;;;;;36.00;33.00;;;;;24.46;51.62;102017.92;110192;1264;18616;-36
2023/09/05 08:48:29;;;;;;;;;12.50;12.00;;;;;24.43;51.59;102017.45;110208;1249;22258;-35
2023/09/05 08:50:57;;;;;;;;;16.00;14.00;;;;;24.42;51.97;102015.54;110209;1250;20912;-35
2023/09/05 08:53:24;;;;;;;;;38.50;38.50;;;;;24.39;52.21;102015.19;110191;1257;20047;-36
2023/09/05 08:55:51;;;;;;;;;57.50;49.50;;;;;24.36;52.27;102011.02;110198;1265;22111;-36
2023/09/05 08:58:20;;;;;;;;;22.00;20.00;;;;;24.35;52.28;102007.23;110239;1250;21103;-36
2023/09/05 09:00:48;;;;;;;;;13.00;12.00;;;;;24.40;52.06;102005.33;110195;1265;22689;-35
2023/09/05 09:03:17;;;;;;;;;15.00;13.00;;;;;24.43;52.38;102002.02;110180;1265;18733;-36
2023/09/05 09:05:46;;;;;;;;;15.00;13.00;;;;;24.44;52.44;102000.55;110219;1249;20810;-36
2023/09/05 09:08:14;;;;;;;;;44.50;43.50;;;;;24.50;52.09;102003.76;110191;1264;20044;-37
2023/09/05 09:10:41;;;;;;;;;12.00;12.00;;;;;24.55;51.51;102004.77;110199;1251;20082;-36
2023/09/05 09:13:09;;;;;;;;;15.00;13.00;;;;;24.64;51.19;102005.80;110268;1250;21043;-37
2023/09/05 09:15:36;;;;;;;;;13.00;13.00;;;;;24.71;50.99;102000.59;110274;1265;19962;-36
2023/09/05 09:18:03;;;;;;;;;14.00;13.00;;;;;24.79;50.85;101993.83;110216;1256;23762;-36
2023/09/05 09:20:31;;;;;;;;;13.00;13.00;;;;;24.87;50.74;101995.45;110231;1250;20762;-36
2023/09/05 09:22:59;;;;;;;;;13.50;13.50;;;;;24.77;50.28;101995.23;110134;1250;20008;-37
2023/09/05 09:25:27;;;;;;;;;18.00;16.00;;;;;24.85;50.37;101990.72;110189;1251;20166;-36
2023/09/05 09:27:54;;;;;;;;;16.33;14.00;;;;;25.00;50.22;101984.50;110209;1251;20846;-36
2023/09/05 09:30:21;;;;;;;;;18.00;17.00;;;;;25.06;50.25;101978.01;110179;1259;19932;-36
2023/09/05 09:32:49;;;;;;;;;13.00;13.00;;;;;25.06;49.96;101976.73;110179;1251;20201;-36
2023/09/05 09:35:16;;;;;;;;;17.00;16.00;;;;;25.01;50.21;101972.71;110166;1249;20816;-36
2023/09/05 09:37:43;;;;;;;;;17.00;15.00;;;;;25.05;49.64;101967.30;110187;1250;20015;-37
2023/09/05 09:40:11;;;;;;;;;14.00;14.00;;;;;24.89;49.82;101959.72;110170;1250;21372;-36
2023/09/05 09:42:38;;;;;;;;;16.50;15.00;;;;;24.89;50.14;101961.84;110173;1252;20798;-36
2023/09/05 09:45:08;;;;;;;;;13.00;13.00;;;;;25.09;50.50;101957.65;110148;1265;18845;-36
2023/09/05 09:47:35;;;;;;;;;16.00;16.00;;;;;25.12;50.48;101953.83;110167;1251;20180;-36
2023/09/05 09:50:02;;;;;;;;;16.50;16.50;;;;;25.25;50.48;101953.74;110171;1265;19401;-36
2023/09/05 09:52:30;;;;;;;;;15.00;14.00;;;;;25.49;50.18;101950.71;110149;1251;20031;-36
2023/09/05 09:54:57;;;;;;;;;14.00;12.00;;;;;25.44;50.41;101948.35;110181;1251;21507;-36
2023/09/05 09:57:24;;;;;;;;;17.00;15.00;;;;;25.46;49.81;101943.08;110172;1250;20697;-36
2023/09/05 09:59:52;;;;;;;;;14.00;13.00;;;;;25.42;49.30;101938.64;110168;1259;22176;-36
2023/09/05 10:02:19;;;;;;;;;13.00;13.00;;;;;25.31;49.31;101937.37;110176;1253;20188;-36
2023/09/05 10:04:47;;;;;;;;;13.00;13.00;;;;;25.29;49.23;101937.69;110160;1250;22444;-37
2023/09/05 10:07:15;;;;;;;;;15.00;13.00;;;;;25.46;48.96;101938.02;110188;1251;20058;-36
2023/09/05 10:09:43;;;;;;;;;13.00;13.00;;;;;25.38;49.50;101935.28;110195;1266;18722;-38
2023/09/05 10:12:10;;;;;;;;;14.00;13.00;;;;;25.43;48.97;101925.14;110188;1251;20756;-37
2023/09/05 10:14:38;;;;;;;;;16.00;15.00;;;;;25.54;48.84;101922.02;110147;1250;20018;-36
2023/09/05 10:17:05;;;;;;;;;13.00;11.00;;;;;25.37;48.55;101924.75;110136;1265;18687;-35
2023/09/05 10:19:32;;;;;;;;;13.00;13.00;;;;;25.42;47.97;101920.37;110057;1251;20751;-36
2023/09/05 10:22:00;;;;;;;;;13.00;13.00;;;;;25.45;48.06;101917.84;110173;1265;22070;-36
2023/09/05 10:24:27;;;;;;;;;12.00;11.00;;;;;25.49;47.91;101916.80;110166;1250;22055;-35
2023/09/05 10:26:54;;;;;;;;;10.00;10.00;;;;;25.56;47.91;101918.99;110172;1251;20805;-35
2023/09/05 10:29:22;;;;;;;;;;;;;;;25.74;47.65;101916.34;110234;1251;20074;-35
2023/09/05 10:31:49;;;;;;;;;13.33;13.00;;;;;25.78;48.00;101913.91;110187;1250;18393;-36
2023/09/05 10:34:16;;;;;;;;;13.00;12.00;;;;;25.58;48.07;101918.08;110236;1253;19391;-36
2023/09/05 10:36:46;;;;;;;;;14.00;14.00;;;;;25.50;48.40;101915.55;110209;1264;19947;-36
2023/09/05 10:39:13;;;;;;;;;13.00;11.00;;;;;25.47;48.45;101915.16;110167;1251;20119;-37
2023/09/05 10:41:40;;;;;;;;;11.00;11.00;;;;;25.48;48.28;101918.95;110195;1251;20740;-36
2023/09/05 10:44:08;;;;;;;;;15.00;14.00;;;;;25.39;48.39;101921.24;110251;1265;18597;-37
2023/09/05 10:46:35;;;;;;;;;14.00;13.00;;;;;25.55;48.15;101917.52;110281;1250;20361;-36
2023/09/05 10:49:02;;;;;;;;;14.00;14.00;;;;;25.46;48.17;101919.55;110296;1265;19525;-37
2023/09/05 10:51:30;;;;;;;;;14.00;14.00;;;;;25.44;48.40;101918.61;110184;1251;20068;-36
2023/09/05 10:53:57;;;;;;;;;13.00;13.00;;;;;25.60;48.57;101915.71;110201;1251;20150;-35
2023/09/05 10:56:24;;;;;;;;;15.00;14.00;;;;;25.67;48.32;101911.66;110208;1250;20526;-36
2023/09/05 10:58:54;;;;;;;;;12.33;12.33;;;;;25.72;48.14;101905.69;110188;1251;20014;-36
2023/09/05 11:01:22;;;;;;;;;19.00;15.00;;;;;25.61;48.61;101909.85;110176;1250;22213;-35
2023/09/05 11:03:50;;;;;;;;;14.33;13.33;;;;;25.61;48.14;101906.48;110192;1257;20626;-36
2023/09/05 11:06:17;;;;;;;;;14.00;13.00;;;;;25.59;47.69;101895.45;110172;1249;22672;-37
2023/09/05 11:08:45;;;;;;;;;15.00;14.00;;;;;25.48;47.65;101893.92;110195;1265;18756;-36